createdAt,value
2023-01-04T00:00:17.064Z,35.46
2023-01-04T00:02:47.902Z,35.45
2023-01-04T00:05:18.261Z,35.74
2023-01-04T00:07:48.833Z,35.33
2023-01-04T00:10:19.274Z,35.40
2023-01-04T00:12:51.572Z,35.67
2023-01-04T00:15:21.384Z,35.49
2023-01-04T00:17:51.365Z,35.38
2023-01-04T00:20:21.229Z,35.24
2023-01-04T00:22:50.788Z,35.51
2023-01-04T00:25:21.014Z,35.22
2023-01-04T00:27:53.438Z,35.49
2023-01-04T00:30:23.898Z,35.37
2023-01-04T00:32:56.745Z,35.05
2023-01-04T00:35:45.317Z,35.22
2023-01-04T00:38:16.054Z,35.18
2023-01-04T00:40:46.578Z,35.13
2023-01-04T00:43:18.535Z,35.07
2023-01-04T00:45:48.614Z,34.87
2023-01-04T00:48:18.709Z,35.28
2023-01-04T00:50:49.697Z,35.31
2023-01-04T00:53:21.244Z,34.88
2023-01-04T00:55:51.824Z,35.33
2023-01-04T00:58:23.984Z,35.01
2023-01-04T01:00:54.618Z,35.12
2023-01-04T01:03:24.891Z,34.81
2023-01-04T01:05:55.667Z,35.20
2023-01-04T01:08:29.142Z,35.12
2023-01-04T01:11:06.301Z,35.22
2023-01-04T01:13:39.864Z,35.17
2023-01-04T01:16:14.692Z,35.03
2023-01-04T01:18:47.566Z,34.95
2023-01-04T01:21:21.605Z,34.78
2023-01-04T01:23:53.495Z,34.81
2023-01-04T01:26:26.623Z,35.05
2023-01-04T01:28:58.245Z,34.95
2023-01-04T01:31:30.752Z,34.73
2023-01-04T01:34:00.995Z,34.95
2023-01-04T01:36:31.268Z,34.89
2023-01-04T01:39:02.007Z,34.96
2023-01-04T01:41:35.451Z,34.75
2023-01-04T01:44:29.656Z,34.97
2023-01-04T01:47:00.423Z,35.04
2023-01-04T01:49:37.837Z,34.96
2023-01-04T01:52:13.864Z,34.95
2023-01-04T01:54:52.041Z,34.46
2023-01-04T01:57:27.982Z,34.52
2023-01-04T02:00:05.822Z,35.00
2023-01-04T02:02:37.534Z,34.89
2023-01-04T02:05:08.345Z,35.00
2023-01-04T02:07:40.257Z,34.68
2023-01-04T02:10:12.007Z,34.73
2023-01-04T02:12:42.635Z,34.88
2023-01-04T02:15:16.274Z,35.05
2023-01-04T02:18:00.971Z,34.68
2023-01-04T02:20:49.074Z,34.50
2023-01-04T02:24:03.907Z,34.62
2023-01-04T02:27:12.850Z,34.91
2023-01-04T02:30:42.390Z,34.60
2023-01-04T02:33:39.559Z,34.71
2023-01-04T02:36:22.137Z,35.09
2023-01-04T02:39:07.630Z,34.97
2023-01-04T02:41:46.069Z,34.67
2023-01-04T02:44:37.718Z,35.11
2023-01-04T02:47:13.342Z,34.95
2023-01-04T02:50:05.114Z,34.94
2023-01-04T02:52:36.768Z,34.79
2023-01-04T02:55:09.961Z,34.62
2023-01-04T02:57:54.957Z,34.94
2023-01-04T03:01:07.072Z,35.01
2023-01-04T03:04:08.427Z,34.83
2023-01-04T03:06:51.500Z,35.22
2023-01-04T03:09:28.740Z,34.61
2023-01-04T03:12:23.626Z,34.75
2023-01-04T03:15:02.579Z,34.95
2023-01-04T03:17:43.009Z,35.25
2023-01-04T03:20:18.580Z,34.67
2023-01-04T03:23:14.378Z,35.13
2023-01-04T03:26:09.414Z,35.11
2023-01-04T03:29:01.268Z,35.12
2023-01-04T03:31:59.802Z,34.68
2023-01-04T03:34:47.339Z,35.05
2023-01-04T03:37:26.028Z,34.75
2023-01-04T03:40:44.438Z,34.88
2023-01-04T03:43:38.128Z,35.30
2023-01-04T03:46:31.551Z,34.97
2023-01-04T03:49:13.270Z,34.85
2023-01-04T03:51:46.777Z,34.93
2023-01-04T03:54:24.955Z,35.30
2023-01-04T03:57:00.672Z,35.44
2023-01-04T03:59:31.371Z,35.49
2023-01-04T04:02:03.163Z,35.32
2023-01-04T04:04:50.030Z,35.14
2023-01-04T04:07:36.795Z,35.00
2023-01-04T04:10:08.108Z,35.14
2023-01-04T04:12:40.346Z,35.20
2023-01-04T04:15:11.796Z,35.01
2023-01-04T04:17:41.629Z,35.08
2023-01-04T04:20:14.002Z,34.90
2023-01-04T04:22:44.222Z,35.27
2023-01-04T04:25:15.230Z,35.58
2023-01-04T04:27:46.813Z,35.60
2023-01-04T04:30:17.156Z,35.50
2023-01-04T04:32:47.610Z,35.35
2023-01-04T04:35:18.182Z,35.82
2023-01-04T04:37:48.697Z,35.33
2023-01-04T04:40:32.464Z,35.64
2023-01-04T04:43:04.269Z,35.73
2023-01-04T04:45:34.678Z,35.77
2023-01-04T04:48:05.323Z,35.31
2023-01-04T04:50:36.204Z,35.22
2023-01-04T04:53:06.517Z,35.76
2023-01-04T04:55:36.943Z,35.29
2023-01-04T04:58:09.760Z,35.63
2023-01-04T05:00:43.091Z,35.60
2023-01-04T05:03:13.279Z,35.74
2023-01-04T05:05:43.816Z,35.29
2023-01-04T05:08:13.995Z,35.73
2023-01-04T05:10:44.307Z,35.86
2023-01-04T05:13:14.886Z,35.32
2023-01-04T05:15:48.444Z,35.81
2023-01-04T05:18:21.625Z,35.39
2023-01-04T05:20:52.837Z,35.54
2023-01-04T05:23:25.824Z,36.06
2023-01-04T05:25:59.377Z,35.90
2023-01-04T05:28:31.838Z,35.54
2023-01-04T05:31:00.590Z,35.67
2023-01-04T05:33:33.585Z,35.85
2023-01-04T05:36:06.558Z,35.54
2023-01-04T05:38:37.735Z,35.98
2023-01-04T05:41:28.616Z,35.44
2023-01-04T05:44:03.493Z,36.01
2023-01-04T05:46:34.280Z,35.57
2023-01-04T05:49:04.175Z,35.67
2023-01-04T05:51:34.159Z,35.75
2023-01-04T05:54:04.651Z,35.55
2023-01-04T05:56:35.104Z,36.07
2023-01-04T05:59:07.612Z,35.63
2023-01-04T06:01:37.757Z,35.60
2023-01-04T06:04:08.083Z,35.55
2023-01-04T06:06:38.152Z,35.45
2023-01-04T06:09:08.902Z,36.04
2023-01-04T06:11:39.332Z,35.50
2023-01-04T06:14:11.214Z,35.94
2023-01-04T06:16:41.678Z,35.82
2023-01-04T06:19:12.254Z,35.84
2023-01-04T06:21:42.584Z,35.55
2023-01-04T06:24:14.597Z,35.93
2023-01-04T06:26:44.995Z,35.65
2023-01-04T06:29:17.762Z,36.10
2023-01-04T06:31:49.122Z,35.94
2023-01-04T06:34:20.395Z,35.76
2023-01-04T06:36:53.384Z,36.00
2023-01-04T06:39:23.361Z,35.51
2023-01-04T06:41:53.837Z,35.85
2023-01-04T06:44:25.354Z,35.55
2023-01-04T06:46:55.565Z,35.12
2023-01-04T06:49:25.695Z,35.03
2023-01-04T06:51:56.083Z,35.39
2023-01-04T06:54:26.511Z,35.32
2023-01-04T06:56:56.981Z,35.04
2023-01-04T06:59:28.956Z,34.82
2023-01-04T07:01:59.700Z,34.95
2023-01-04T07:04:30.429Z,35.04
2023-01-04T07:07:00.978Z,34.85
2023-01-04T07:09:31.525Z,34.80
2023-01-04T07:12:03.600Z,34.63
2023-01-04T07:14:37.058Z,34.65
2023-01-04T07:17:07.429Z,34.71
2023-01-04T07:19:37.907Z,34.38
2023-01-04T07:22:08.408Z,34.70
2023-01-04T07:24:38.832Z,34.32
2023-01-04T07:27:08.811Z,34.70
2023-01-04T07:29:44.305Z,34.80
2023-01-04T07:32:14.827Z,35.00
2023-01-04T07:34:45.113Z,34.85
2023-01-04T07:37:16.560Z,34.45
2023-01-04T07:39:48.915Z,34.54
2023-01-04T07:42:20.827Z,34.97
2023-01-04T07:44:52.635Z,34.41
2023-01-04T07:47:23.052Z,34.71
2023-01-04T07:49:53.326Z,34.18
2023-01-04T07:52:23.766Z,34.24
2023-01-04T07:54:54.062Z,34.58
2023-01-04T07:57:24.719Z,34.53
2023-01-04T07:59:57.395Z,34.54
2023-01-04T08:02:28.203Z,34.04
2023-01-04T08:04:59.867Z,34.18
2023-01-04T08:07:31.036Z,34.03
2023-01-04T08:10:01.108Z,33.65
2023-01-04T08:12:31.583Z,34.14
2023-01-04T08:15:03.864Z,34.16
2023-01-04T08:17:33.918Z,33.77
2023-01-04T08:20:04.522Z,33.93
2023-01-04T08:22:34.997Z,33.80
2023-01-04T08:25:06.455Z,33.56
2023-01-04T08:27:37.374Z,34.04
2023-01-04T08:30:12.848Z,34.05
2023-01-04T08:32:43.706Z,33.88
2023-01-04T08:35:13.997Z,33.74
2023-01-04T08:37:44.130Z,33.95
2023-01-04T08:40:15.565Z,34.06
2023-01-04T08:42:46.037Z,34.50
2023-01-04T08:45:18.497Z,34.57
2023-01-04T08:47:48.910Z,34.96
2023-01-04T08:50:20.933Z,35.09
2023-01-04T08:52:51.101Z,34.70
2023-01-04T08:55:23.455Z,34.47
2023-01-04T08:57:54.286Z,34.27
2023-01-04T09:00:26.936Z,33.95
2023-01-04T09:02:57.609Z,33.46
2023-01-04T09:05:29.380Z,33.70
2023-01-04T09:08:01.760Z,33.65
2023-01-04T09:10:32.168Z,33.29
2023-01-04T09:13:03.360Z,33.25
2023-01-04T09:15:35.896Z,33.15
2023-01-04T09:20:59.019Z,32.92
2023-01-04T09:23:30.009Z,32.60
2023-01-04T09:26:04.305Z,32.75
2023-01-04T09:28:38.196Z,32.79
2023-01-04T09:31:12.021Z,32.57
2023-01-04T09:34:12.952Z,32.43
2023-01-04T09:36:34.671Z,32.95
2023-01-04T09:39:05.585Z,32.72
2023-01-04T09:41:41.650Z,32.80
2023-01-04T09:44:54.320Z,32.89
2023-01-04T09:47:35.146Z,32.74
2023-01-04T09:50:15.068Z,32.70
2023-01-04T09:52:59.264Z,32.52
2023-01-04T09:55:41.022Z,32.32
2023-01-04T09:58:27.311Z,31.72
2023-01-04T10:01:05.260Z,32.37
2023-01-04T10:03:41.125Z,32.07
2023-01-04T10:06:16.182Z,32.00
2023-01-04T10:08:47.733Z,31.83
2023-01-04T10:11:45.962Z,32.04
2023-01-04T10:14:44.327Z,31.78
2023-01-04T10:18:10.278Z,31.84
2023-01-04T10:21:33.702Z,31.78
2023-01-04T10:24:43.507Z,31.89
2023-01-04T10:27:35.386Z,32.10
2023-01-04T10:30:27.587Z,31.92
2023-01-04T10:33:12.303Z,31.86
2023-01-04T10:35:45.238Z,31.94
2023-01-04T10:38:22.638Z,31.84
2023-01-04T10:40:53.300Z,31.81
2023-01-04T10:44:11.051Z,31.67
2023-01-04T10:46:38.766Z,31.88
2023-01-04T10:49:17.630Z,31.48
2023-01-04T10:51:57.515Z,31.86
2023-01-04T10:54:41.613Z,31.84
2023-01-04T10:57:19.563Z,31.87
2023-01-04T10:59:56.667Z,31.92
2023-01-04T11:02:38.388Z,31.90
2023-01-04T11:05:21.280Z,31.75
2023-01-04T11:07:58.653Z,31.85
2023-01-04T11:10:38.911Z,32.04
2023-01-04T11:13:10.806Z,31.85
2023-01-04T11:15:43.056Z,31.80
2023-01-04T11:18:17.561Z,31.85
2023-01-04T11:20:48.346Z,31.89
2023-01-04T11:23:21.105Z,31.73
2023-01-04T11:25:59.084Z,31.56
2023-01-04T11:28:39.295Z,31.85
2023-01-04T11:31:24.914Z,32.02
2023-01-04T11:34:01.717Z,32.15
2023-01-04T11:36:41.876Z,31.99
2023-01-04T11:39:22.379Z,32.07
2023-01-04T11:42:22.400Z,32.31
2023-01-04T11:45:02.485Z,32.21
2023-01-04T11:47:33.455Z,32.25
2023-01-04T11:50:04.297Z,32.18
2023-01-04T11:52:38.106Z,32.53
2023-01-04T11:55:25.142Z,32.25
2023-01-04T11:58:10.790Z,32.45
2023-01-04T12:00:42.383Z,32.38
2023-01-04T12:03:18.195Z,32.12
2023-01-04T12:05:48.657Z,32.54
2023-01-04T12:08:33.237Z,32.48
2023-01-04T12:11:07.093Z,32.52
2023-01-04T12:13:40.168Z,32.77
2023-01-04T12:16:24.793Z,32.33
2023-01-04T12:18:56.004Z,32.69
2023-01-04T12:21:28.929Z,32.71
2023-01-04T12:23:59.903Z,33.04
2023-01-04T12:26:30.492Z,33.00
2023-01-04T12:29:44.113Z,32.58
2023-01-04T12:32:49.332Z,32.75
2023-01-04T12:36:07.260Z,32.70
2023-01-04T12:39:30.430Z,33.08
2023-01-04T12:42:29.871Z,33.09
2023-01-04T12:45:23.619Z,33.18
2023-01-04T12:48:12.810Z,33.08
2023-01-04T12:51:37.290Z,33.39
2023-01-04T12:54:32.358Z,33.33
2023-01-04T12:57:32.110Z,33.04
2023-01-04T13:00:12.311Z,32.99
2023-01-04T13:02:48.563Z,33.14
2023-01-04T13:08:28.992Z,33.34
2023-01-04T13:11:00.586Z,33.35
2023-01-04T13:13:46.007Z,33.25
2023-01-04T13:16:31.158Z,33.54
2023-01-04T13:19:04.976Z,33.51
2023-01-04T13:21:41.811Z,33.25
2023-01-04T13:24:25.470Z,33.77
2023-01-04T13:26:57.182Z,33.64
2023-01-04T13:29:30.061Z,33.56
2023-01-04T13:32:04.976Z,33.55
2023-01-04T13:34:38.415Z,33.46
2023-01-04T13:37:19.537Z,33.51
2023-01-04T13:39:51.981Z,33.49
2023-01-04T13:42:31.356Z,33.50
2023-01-04T13:45:36.459Z,33.67
2023-01-04T13:48:18.648Z,33.73
2023-01-04T13:51:02.232Z,33.97
2023-01-04T13:53:34.940Z,33.73
2023-01-04T13:56:06.733Z,33.72
2023-01-04T13:58:38.273Z,33.72
2023-01-04T14:01:18.248Z,33.71
2023-01-04T14:03:54.948Z,34.04
2023-01-04T14:06:30.929Z,33.98
2023-01-04T14:09:19.141Z,33.87
2023-01-04T14:12:08.297Z,33.80
2023-01-04T14:14:54.098Z,33.64
2023-01-04T14:17:40.535Z,34.11
2023-01-04T14:20:38.780Z,33.84
2023-01-04T14:23:36.008Z,33.92
2023-01-04T14:26:06.575Z,34.28
2023-01-04T14:28:49.446Z,34.28
2023-01-04T14:31:33.133Z,34.15
2023-01-04T14:34:14.849Z,33.84
2023-01-04T14:36:47.993Z,34.26
2023-01-04T14:39:35.804Z,33.92
2023-01-04T14:42:06.703Z,34.25
2023-01-04T14:44:41.578Z,34.29
2023-01-04T14:47:14.353Z,34.06
2023-01-04T14:49:44.466Z,34.26
2023-01-04T14:52:26.118Z,34.14
2023-01-04T14:54:56.594Z,33.98
2023-01-04T14:57:27.198Z,34.19
2023-01-04T14:59:58.240Z,34.25
2023-01-04T15:02:30.803Z,34.12
2023-01-04T15:05:01.484Z,34.08
2023-01-04T15:07:40.269Z,34.31
2023-01-04T15:10:24.151Z,34.44
2023-01-04T15:12:55.591Z,34.23
2023-01-04T15:15:26.525Z,34.45
2023-01-04T15:17:56.881Z,34.21
2023-01-04T15:20:27.383Z,34.43
2023-01-04T15:22:59.935Z,34.21
2023-01-04T15:25:30.360Z,34.17
2023-01-04T15:28:00.950Z,34.28
2023-01-04T15:30:35.004Z,34.81
2023-01-04T15:33:05.984Z,34.74
2023-01-04T15:35:36.234Z,34.66
2023-01-04T15:38:14.371Z,34.67
2023-01-04T15:40:51.448Z,34.34
2023-01-04T15:43:20.188Z,34.83
2023-01-04T15:45:50.673Z,34.62
2023-01-04T15:48:21.113Z,34.41
2023-01-04T15:50:51.537Z,35.24
2023-01-04T15:53:23.602Z,34.90
2023-01-04T15:55:54.725Z,34.98
2023-01-04T15:58:24.829Z,34.79
2023-01-04T16:01:01.236Z,34.65
2023-01-04T16:03:37.693Z,35.27
2023-01-04T16:06:10.639Z,35.16
2023-01-04T16:08:43.966Z,35.15
2023-01-04T16:11:17.997Z,35.06
2023-01-04T16:13:50.722Z,35.13
2023-01-04T16:16:23.293Z,35.45
2023-01-04T16:18:56.435Z,35.00
2023-01-04T16:21:30.101Z,35.53
2023-01-04T16:24:20.802Z,35.38
2023-01-04T16:26:56.174Z,35.25
2023-01-04T16:29:26.352Z,35.67
2023-01-04T16:31:57.139Z,35.64
2023-01-04T16:34:27.517Z,35.51
2023-01-04T16:36:57.940Z,35.37
2023-01-04T16:42:23.144Z,35.64
2023-01-04T16:44:53.358Z,35.90
2023-01-04T16:47:23.842Z,36.04
2023-01-04T16:49:55.634Z,35.91
2023-01-04T16:52:28.024Z,35.66
2023-01-04T16:55:00.545Z,36.08
2023-01-04T16:57:30.480Z,35.74
2023-01-04T17:00:00.785Z,35.67
2023-01-04T17:02:31.263Z,35.92
2023-01-04T17:05:01.483Z,36.05
2023-01-04T17:07:33.495Z,36.00
2023-01-04T17:10:06.957Z,35.99
2023-01-04T17:12:47.470Z,36.13
2023-01-04T17:18:12.792Z,35.67
2023-01-04T17:20:43.353Z,36.18
2023-01-04T17:23:15.795Z,36.13
2023-01-04T17:25:48.308Z,36.13
2023-01-04T17:28:24.717Z,36.05
2023-01-04T17:30:55.693Z,36.19
2023-01-04T17:33:27.107Z,36.14
2023-01-04T17:35:58.189Z,36.38
2023-01-04T17:38:28.631Z,36.37
2023-01-04T17:41:10.424Z,36.28
2023-01-04T17:43:42.189Z,36.14
2023-01-04T17:46:20.756Z,36.43
2023-01-04T17:49:21.210Z,36.78
2023-01-04T17:51:44.166Z,36.78
2023-01-04T17:54:14.583Z,36.49
2023-01-04T17:56:47.043Z,36.51
2023-01-04T17:59:18.990Z,36.61
2023-01-04T18:01:49.715Z,36.78
2023-01-04T18:04:20.812Z,36.91
2023-01-04T18:06:51.347Z,36.60
2023-01-04T18:09:24.427Z,36.62
2023-01-04T18:11:56.761Z,36.53
2023-01-04T18:14:28.020Z,36.73
2023-01-04T18:16:58.933Z,36.71
2023-01-04T18:19:31.606Z,36.76
2023-01-04T18:22:02.431Z,36.72
2023-01-04T18:24:40.077Z,36.74
2023-01-04T18:27:25.013Z,36.80
2023-01-04T18:29:57.557Z,36.74
2023-01-04T18:32:29.607Z,36.92
2023-01-04T18:35:04.896Z,36.88
2023-01-04T18:37:36.018Z,37.07
2023-01-04T18:40:07.539Z,37.13
2023-01-04T18:42:42.126Z,37.28
2023-01-04T18:45:13.909Z,36.84
2023-01-04T18:47:47.905Z,37.15
2023-01-04T18:50:19.231Z,37.06
2023-01-04T18:52:49.198Z,37.35
2023-01-04T18:55:19.646Z,36.94
2023-01-04T18:57:51.734Z,37.14
2023-01-04T19:00:23.426Z,36.98
2023-01-04T19:02:54.024Z,36.93
2023-01-04T19:05:28.039Z,37.02
2023-01-04T19:07:58.472Z,36.80
2023-01-04T19:10:28.439Z,36.88
2023-01-04T19:13:00.943Z,36.86
2023-01-04T19:15:31.556Z,36.95
2023-01-04T19:18:01.551Z,37.07
2023-01-04T19:20:31.724Z,36.97
2023-01-04T19:23:01.595Z,37.19
2023-01-04T19:25:31.256Z,37.16
2023-01-04T19:28:02.950Z,37.25
2023-01-04T19:30:33.269Z,37.22
2023-01-04T19:33:03.839Z,37.05
2023-01-04T19:35:34.442Z,37.50
2023-01-04T19:38:04.859Z,37.14
2023-01-04T19:40:35.472Z,37.20
2023-01-04T19:43:08.195Z,37.27
2023-01-04T19:45:42.103Z,37.33
2023-01-04T19:48:12.200Z,37.35
2023-01-04T19:50:41.878Z,37.23
2023-01-04T19:53:13.368Z,37.59
2023-01-04T19:55:43.830Z,37.70
2023-01-04T19:58:18.119Z,37.34
2023-01-04T20:00:54.612Z,37.11
2023-01-04T20:03:26.429Z,37.19
2023-01-04T20:05:57.947Z,37.48
2023-01-04T20:08:28.401Z,37.31
2023-01-04T20:11:01.262Z,37.23
2023-01-04T20:13:35.919Z,37.78
2023-01-04T20:16:07.276Z,37.60
2023-01-04T20:18:38.337Z,37.41
2023-01-04T20:21:14.339Z,37.74
2023-01-04T20:23:44.641Z,37.47
2023-01-04T20:26:18.394Z,37.69
2023-01-04T20:28:50.791Z,37.54
2023-01-04T20:31:22.847Z,37.53
2023-01-04T20:33:53.407Z,37.84
2023-01-04T20:36:27.067Z,37.71
2023-01-04T20:38:58.577Z,37.36
2023-01-04T20:41:32.910Z,37.77
2023-01-04T20:44:04.468Z,37.58
2023-01-04T20:46:35.261Z,38.06
2023-01-04T20:49:06.011Z,37.57
2023-01-04T20:51:36.012Z,37.79
2023-01-04T20:54:06.600Z,37.82
2023-01-04T20:56:39.166Z,37.69
2023-01-04T20:59:11.172Z,37.76
2023-01-04T21:01:42.551Z,37.83
2023-01-04T21:04:16.244Z,37.55
2023-01-04T21:06:46.698Z,37.73
2023-01-04T21:09:17.227Z,38.05
2023-01-04T21:11:48.282Z,37.74
2023-01-04T21:14:20.598Z,37.80
2023-01-04T21:16:51.059Z,38.26
2023-01-04T21:19:22.830Z,38.12
2023-01-04T21:21:52.625Z,38.22
2023-01-04T21:24:23.406Z,38.06
2023-01-04T21:26:53.426Z,38.09
2023-01-04T21:29:26.421Z,37.58
2023-01-04T21:31:57.020Z,37.90
2023-01-04T21:34:28.549Z,37.85
2023-01-04T21:36:59.068Z,37.88
2023-01-04T21:39:29.625Z,37.95
2023-01-04T21:41:59.654Z,37.64
2023-01-04T21:44:32.999Z,38.06
2023-01-04T21:47:04.280Z,37.77
2023-01-04T21:49:36.122Z,37.93
2023-01-04T21:52:06.636Z,38.15
2023-01-04T21:54:36.500Z,38.34
2023-01-04T21:57:08.295Z,38.17
2023-01-04T21:59:39.875Z,38.33
2023-01-04T22:02:10.470Z,38.23
2023-01-04T22:04:41.112Z,37.94
2023-01-04T22:07:11.607Z,38.00
2023-01-04T22:09:42.171Z,38.06
2023-01-04T22:12:12.820Z,38.37
2023-01-04T22:14:45.159Z,38.11
2023-01-04T22:17:16.049Z,38.32
2023-01-04T22:19:45.868Z,38.18
2023-01-04T22:22:15.777Z,38.41
2023-01-04T22:24:45.516Z,38.31
2023-01-04T22:27:15.124Z,38.11
2023-01-04T22:29:47.152Z,38.35
2023-01-04T22:32:17.620Z,38.52
2023-01-04T22:34:48.171Z,38.14
2023-01-04T22:37:18.627Z,38.47
2023-01-04T22:39:48.872Z,37.88
2023-01-04T22:42:18.827Z,38.05
2023-01-04T22:44:51.782Z,38.39
2023-01-04T22:47:22.109Z,38.08
2023-01-04T22:49:52.508Z,38.62
2023-01-04T22:52:22.969Z,37.87
2023-01-04T22:54:53.116Z,38.52
2023-01-04T22:57:23.670Z,38.13
2023-01-04T22:59:56.134Z,38.42
2023-01-04T23:02:26.886Z,38.04
2023-01-04T23:04:56.748Z,38.26
2023-01-04T23:07:26.855Z,38.60
2023-01-04T23:09:59.784Z,38.06
2023-01-04T23:12:31.890Z,38.23
2023-01-04T23:15:05.351Z,38.58
2023-01-04T23:17:35.814Z,38.27
2023-01-04T23:20:10.417Z,38.14
2023-01-04T23:22:41.121Z,38.79
2023-01-04T23:25:12.943Z,38.56
2023-01-04T23:27:43.140Z,38.79
2023-01-04T23:30:18.232Z,38.32
2023-01-04T23:32:48.649Z,38.57
2023-01-04T23:35:19.186Z,38.46
2023-01-04T23:37:49.544Z,38.60
2023-01-04T23:40:20.167Z,38.88
2023-01-04T23:42:53.221Z,38.43
2023-01-04T23:45:26.275Z,38.52
2023-01-04T23:47:56.905Z,38.70
2023-01-04T23:50:27.124Z,38.26
2023-01-04T23:52:57.446Z,38.49
2023-01-04T23:55:27.952Z,38.72
2023-01-04T23:57:58.128Z,38.37
